Wisconsin Logo

Beloit, WI Single Family Real Estate Listings

110 Total Real Estate Listings * Click on table heading to sort
Date Posted Property Type Style Address Price Living Area Lot Size Price/Sq Ft.
2018-06-22 Single Family Cape Cod 1930 Prairie Beloit, WI 53511 $105,900 1,232 sq. ft. 20,038 sq. ft. $86
2018-06-21 Single Family Ranch 2312 Wood Dr Beloit, WI 53511 $80,000 1,188 sq. ft. 9,583 sq. ft. $67
2018-06-21 Single Family Ranch 2269 Cobblestone Ln Beloit, WI 53511 $149,900 2,260 sq. ft. 11,761 sq. ft. $66
2018-06-21 Single Family 1047 Park Ave Beloit, WI 53511 $114,000 2,058 sq. ft. 6,186 sq. ft. $55
2018-06-21 Single Family Ranch 3635 Golden Eagle Drive Beloit, WI 53511 $221,500 1,904 sq. ft. 10,890 sq. ft. $116
2018-06-20 Single Family 1868 Greenview Dr Beloit, WI 53511 $69,900 702 sq. ft. 6,098 sq. ft. $100
2018-06-20 Single Family Ranch 1928 Townview Ave Beloit, WI 53511 $115,000 1,161 sq. ft. 9,757 sq. ft. $99
2018-06-19 Single Family Cape Cod 1726 Forest Ave Beloit, WI 53511 $79,900 1,012 sq. ft. 6,534 sq. ft. $79
2018-06-18 Single Family Ranch 1606 Williams Dr Beloit, WI 53511 $244,900 1,600 sq. ft. 15,333 sq. ft. $153
2018-06-18 Single Family National Folk/Farm 923 Euclid Ave Beloit, WI 53511 $42,000 1,352 sq. ft. 13,068 sq. ft. $31
2018-06-18 Single Family Cape Cod 1419 Chapin St Beloit, WI 53511 $120,000 1,337 sq. ft. 9,060 sq. ft. $90
2018-06-18 Single Family Colonial 328 Vernon Ave Beloit, WI 53511 $84,900 1,248 sq. ft. 6,795 sq. ft. $68
2018-06-15 Single Family Prairie/Craftsman 625 Wisconsin Ave Beloit, WI 53511 $120,000 2,472 sq. ft. 6,970 sq. ft. $49
2018-06-15 Single Family Ranch 838 Daffodil Ln Beloit, WI 53511 $189,900 2,174 sq. ft. 10,454 sq. ft. $87
2018-06-14 Single Family Contemporary 3375 Riverside Dr Beloit, WI 53511 $309,900 6,356 sq. ft. 112,820 sq. ft. $49
2018-06-14 Single Family Ranch 904 Johnson St Beloit, WI 53511 $79,900 1,100 sq. ft. 6,578 sq. ft. $73
2018-06-14 Single Family National Folk/Farm 821 Harrison Ave Beloit, WI 53511 $39,900 1,428 sq. ft. 5,227 sq. ft. $28
2018-06-13 Single Family Cape Cod 1732 Cranston Rd Beloit, WI 53511 $74,900 1,072 sq. ft. 20,038 sq. ft. $70
2018-06-13 Single Family Ranch 843 Petunia Ln Beloit, WI 53511 $175,000 1,532 sq. ft. 12,297 sq. ft. $114
2018-06-13 Single Family Bungalow 1420 Ritsher St Beloit, WI 53511 $72,000 640 sq. ft. 11,718 sq. ft. $112
2018-06-13 Single Family Ranch 1916 Park Ave Beloit, WI 53511 $69,900 832 sq. ft. 4,792 sq. ft. $84
2018-06-12 Single Family Ranch 3230 Riverside Dr Beloit, WI 53511 $189,000 2,543 sq. ft. 26,092 sq. ft. $74
2018-06-11 Single Family 2341 Lathers Rd Beloit, WI 53511 $379,900 4,952 sq. ft. 74,052 sq. ft. $77
2018-06-11 Single Family Ranch 2127 Mildred St Beloit, WI 53511 $129,000 1,414 sq. ft. 11,631 sq. ft. $91
2018-06-11 Single Family 1211 Moore St Beloit, WI 53511 $73,900 1,720 sq. ft. 6,534 sq. ft. $43
2018-06-11 Single Family National Folk/Farm 1741 Pine St Beloit, WI 53511 $63,900 1,256 sq. ft. 3,920 sq. ft. $51
2018-06-11 Single Family Victorian 905 Grand Ave Beloit, WI 53511 $87,600 1,307 sq. ft. 8,233 sq. ft. $67
2018-06-09 Single Family Prairie/Craftsman 1233 La Salle St Beloit, WI 53511 $84,000 1,176 sq. ft. 7,405 sq. ft. $71
2018-06-09 Single Family Ranch 1865 Chippewa Tr Beloit, WI 53511 $120,000 1,827 sq. ft. 15,594 sq. ft. $66
2018-06-09 Single Family Ranch 1814 Spruce St Beloit, WI 53511 $52,500 780 sq. ft. 6,534 sq. ft. $67
2018-06-07 Single Family Colonial 2650 Collingswood Dr Beloit, WI 53511 $230,000 2,412 sq. ft. 15,682 sq. ft. $95
2018-06-07 Single Family Cape Cod 1619 Portland Ave Beloit, WI 53511 $98,900 1,186 sq. ft. 6,970 sq. ft. $83
2018-06-06 Single Family 4745 Colley Rd Beloit, WI 53511 $269,900 2,348 sq. ft. 453,024 sq. ft. $115
2018-06-06 Single Family Ranch 317 Ritsher St Beloit, WI 53511 $79,000 896 sq. ft. 11,805 sq. ft. $88
2018-06-05 Single Family 103 Cleveland St Beloit, WI 53511 $99,900 1,532 sq. ft. 19,602 sq. ft. $65
2018-06-04 Single Family 642 Milwaukee Rd Beloit, WI 53511 $144,900 1,728 sq. ft. 5,663 sq. ft. $84
2018-06-04 Single Family Ranch 2222 Merrill St Beloit, WI 53511 $160,000 2,576 sq. ft. 11,326 sq. ft. $62
2018-06-03 Single Family Ranch 1706 Ashland Ave Beloit, WI 53511 $75,000 912 sq. ft. 5,663 sq. ft. $82
2018-06-02 Single Family Ranch 1321 Roosevelt Ave Beloit, WI 53511 $59,800 850 sq. ft. 9,583 sq. ft. $70
2018-06-01 Single Family 1410 Keeler Ave Beloit, WI 53511 $78,900 1,620 sq. ft. 5,576 sq. ft. $49
2018-06-01 Single Family 1023 Copeland Ave Beloit, WI 53511 $67,900 1,168 sq. ft. 5,009 sq. ft. $58
2018-06-01 Single Family Ranch 2158 Riverside Dr Beloit, WI 53511 $310,000 2,532 sq. ft. 54,886 sq. ft. $122
2018-05-31 Single Family Ranch 1532 Stratford Dr Beloit, WI 53511 $249,900 2,235 sq. ft. 25,875 sq. ft. $112
2018-05-30 Single Family Prairie/Craftsman 1123 Vine St Beloit, WI 53511 $69,900 1,682 sq. ft. 6,490 sq. ft. $42
2018-05-29 Single Family Ranch 2286 Wood Dr Beloit, WI 53511 $110,000 2,388 sq. ft. 10,237 sq. ft. $46
2018-05-29 Single Family Cape Cod 1810 Morgan Ter Beloit, WI 53511 $172,500 2,162 sq. ft. 17,860 sq. ft. $80
2018-05-29 Single Family Colonial 829 Church St Beloit, WI 53511 $249,000 2,452 sq. ft. 9,148 sq. ft. $102
2018-05-25 Single Family Victorian 1143 Forest Ave Beloit, WI 53511 $74,900 988 sq. ft. 8,712 sq. ft. $76
2018-05-24 Single Family Cape Cod 737 Johnson St Beloit, WI 53511 $74,900 1,342 sq. ft. 6,316 sq. ft. $56
2018-05-23 Single Family Colonial 1342 Grand Ave Beloit, WI 53511 $89,900 1,544 sq. ft. 6,534 sq. ft. $58
2018-05-23 Single Family Ranch 2524 Bootmaker Dr Beloit, WI 53511 $160,000 2,434 sq. ft. 14,549 sq. ft. $66
2018-05-22 Single Family Ranch 2935 Liberty Ave Beloit, WI 53511 $189,900 2,276 sq. ft. 60,026 sq. ft. $83
2018-05-21 Single Family Bungalow 722 Highland Ave Beloit, WI 53511 $49,900 868 sq. ft. 7,754 sq. ft. $57
2018-05-21 Single Family Ranch 1518 Cleveland St Beloit, WI 53511 $84,900 925 sq. ft. 9,583 sq. ft. $92
2018-05-21 Single Family Cape Cod 1854 Dewey Ave Beloit, WI 53511 $67,000 819 sq. ft. 11,979 sq. ft. $82
2018-05-20 Single Family 2032 St Lawrence Ave Beloit, WI 53511 $48,900 658 sq. ft. 6,273 sq. ft. $74
2018-05-18 Single Family 220 Mckinley Ave Beloit, WI 53511 $84,500 986 sq. ft. 7,405 sq. ft. $86
2018-05-17 Single Family Bungalow 743 Garfield Ave Beloit, WI 53511 $57,000 1,383 sq. ft. 6,098 sq. ft. $41
2018-05-17 Single Family Cape Cod 952 Grant St Beloit, WI 53511 $114,900 1,866 sq. ft. 7,841 sq. ft. $62
2018-05-14 Single Family National Folk/Farm 835 Elm St Beloit, WI 53511 $67,500 1,960 sq. ft. 8,276 sq. ft. $34
2018-05-13 Single Family Ranch 1720 Townline Ave Beloit, WI 53511 $104,900 1,068 sq. ft. 7,797 sq. ft. $98
2018-05-09 Single Family Ranch 1867 Porter Ave Beloit, WI 53511 $79,900 1,100 sq. ft. 5,750 sq. ft. $73
2018-05-09 Single Family Bungalow 1546 Washburn St Beloit, WI 53511 $45,000 872 sq. ft. 6,098 sq. ft. $52
2018-05-09 Single Family Ranch 3227 Park Ave Beloit, WI 53511 $204,900 2,608 sq. ft. 15,538 sq. ft. $79
2018-05-08 Single Family Cape Cod 929 9th St Beloit, WI 53511 $79,900 1,485 sq. ft. 7,405 sq. ft. $54
2018-05-07 Single Family Colonial 2060 Madison Rd Beloit, WI 53511 $167,000 1,928 sq. ft. 65,340 sq. ft. $87
2018-05-07 Single Family Bungalow 2113 Euclid Ave Beloit, WI 53511 $79,900 783 sq. ft. 8,712 sq. ft. $102
2018-05-07 Single Family Ranch; Contemporary 2760 Riverside Dr Beloit, WI 53511 $275,000 1,758 sq. ft. 26,136 sq. ft. $156
2018-05-07 Single Family Colonial 917 Church St Beloit, WI 53511 $214,900 1,988 sq. ft. 9,148 sq. ft. $108
2018-05-07 Single Family 3166 Lamplighter Tr Beloit, WI 53511 $294,900 2,747 sq. ft. 40,075 sq. ft. $107
2018-05-07 Single Family Ranch 2105 Yorkshire Dr Beloit, WI 53511 $179,900 2,564 sq. ft. 20,038 sq. ft. $70
2018-05-07 Single Family National Folk/Farm 426 Wisconsin Ave Beloit, WI 53511 $185,000 1,958 sq. ft. 18,731 sq. ft. $94
2018-05-07 Single Family Tudor/Provincial 745 Grand Ave Beloit, WI 53511 $122,000 3,355 sq. ft. 13,068 sq. ft. $36
2018-05-07 Single Family Colonial 1225 Nelson Ave Beloit, WI 53511 $111,900 1,566 sq. ft. 6,098 sq. ft. $71
2018-05-07 Single Family Contemporary 2248 Tumbleweed Ln Beloit, WI 53511 $139,900 1,552 sq. ft. 11,326 sq. ft. $90
2018-05-07 Single Family Ranch 710 Crist Rd Beloit, WI 53511 $109,900 1,300 sq. ft. 14,985 sq. ft. $85
2018-05-07 Single Family Ranch 859 Morning Glory Ln Beloit, WI 53511 $149,900 1,522 sq. ft. 11,326 sq. ft. $98
2018-05-07 Single Family 748 Harrison Ave Beloit, WI 53511 $92,000 1,639 sq. ft. 11,326 sq. ft. $56
2018-05-07 Single Family Ranch 1448 Grant St Beloit, WI 53511 $89,900 900 sq. ft. 7,841 sq. ft. $100
2018-05-07 Single Family Ranch 423 Hazel Ave Beloit, WI 53511 $85,000 1,776 sq. ft. 6,534 sq. ft. $48
2018-05-07 Single Family 2224 Grand Ave Beloit, WI 53511 $60,000 1,560 sq. ft. 6,665 sq. ft. $38
2018-05-07 Single Family Prairie/Craftsman 1547 Forest Ave Beloit, WI 53511 $71,900 1,458 sq. ft. 6,534 sq. ft. $49
2018-05-07 Single Family Colonial 2281 Cobblestone Dr Beloit, WI 53511 $219,900 2,146 sq. ft. 10,411 sq. ft. $102
2018-05-06 Single Family Contemporary 833 Petunia Ln Beloit, WI 53511 $213,400 3,100 sq. ft. 12,284 sq. ft. $69
2018-05-06 Single Family Ranch 2104 Masters St Beloit, WI 53511 $125,900 1,454 sq. ft. 9,148 sq. ft. $87
2018-05-06 Single Family 1337 Highland Ave Beloit, WI 53511 $99,900 1,728 sq. ft. 6,098 sq. ft. $58
2018-05-06 Single Family National Folk/Farm 1327 Emerson St Beloit, WI 53511 $89,900 1,826 sq. ft. 4,356 sq. ft. $49
2018-05-06 Single Family Cape Cod 1243 8th St Beloit, WI 53511 $74,900 1,572 sq. ft. 6,098 sq. ft. $48
2018-05-06 Single Family Bungalow 1915 Church St Beloit, WI 53511 $49,900 682 sq. ft. 11,848 sq. ft. $73
2018-03-26 Single Family Ranch 349 Ridgeland Ave Beloit, WI 53511 $74,900 936 sq. ft. 6,534 sq. ft. $80
2018-03-24 Single Family Ranch 2880 Riverside Dr Beloit, WI 53511 $259,900 1,680 sq. ft. 17,424 sq. ft. $155
2018-03-24 Single Family 948 Masters St Beloit, WI 53511 $97,900 1,212 sq. ft. 54,450 sq. ft. $81
2018-03-23 Single Family Bungalow 840 Bayliss Ave Beloit, WI 53511 $65,900 1,089 sq. ft. 6,142 sq. ft. $61
2018-03-22 Single Family 2670 Chatsworth Dr Beloit, WI 53511 $247,500 3,780 sq. ft. 17,860 sq. ft. $65
2018-03-22 Single Family 349 Euclid Ave Beloit, WI 53511 $124,900 2,586 sq. ft. 13,939 sq. ft. $48
2018-03-21 Single Family Tri-Level 723 Kelsey Rd Beloit, WI 53511 $198,900 1,780 sq. ft. 17,816 sq. ft. $112
2018-03-16 Single Family Ranch 3610 Eagles Ridge Dr Beloit, WI 53511 $299,900 2,660 sq. ft. 18,469 sq. ft. $113
2018-02-21 Single Family Tri-Level 3216 Provincial Ln Beloit, WI 53511 $265,900 2,810 sq. ft. 42,689 sq. ft. $95
2018-01-30 Single Family Ranch 1966 Prairie Ave Beloit, WI 53511 $119,900 1,890 sq. ft. 6,098 sq. ft. $63
2018-01-27 Single Family Contemporary 703 Limerick Ln Beloit, WI 53511 $228,033 2,120 sq. ft. 18,295 sq. ft. $108
2017-12-23 Single Family National Folk/Farm 1114 Highland Ave Beloit, WI 53511 $45,000 1,450 sq. ft. 5,663 sq. ft. $31
2017-12-03 Single Family 1201 Johnson St Beloit, WI 53511 $57,500 1,065 sq. ft. 8,712 sq. ft. $54
2017-10-18 Single Family Bungalow 509 Kenwood Ave Beloit, WI 53511 $54,900 1,552 sq. ft. 4,356 sq. ft. $35
2017-09-27 Single Family Ranch 715 Welty Ave Beloit, WI 53511 $74,000 912 sq. ft. 6,447 sq. ft. $81
2017-09-27 Single Family Victorian 548 Moore St Beloit, WI 53511 $69,900 1,508 sq. ft. 4,356 sq. ft. $46
2017-09-12 Single Family 2870 Riverside Dr Beloit, WI 53511 $329,900 4,449 sq. ft. 13,068 sq. ft. $74
2017-07-31 Single Family 2680 Sarah Ln Beloit, WI 53511 $333,900 3,254 sq. ft. 25,700 sq. ft. $103
2017-07-18 Single Family National Folk/Farm 555 Locust St Beloit, WI 53511 $48,500 1,721 sq. ft. 8,799 sq. ft. $28
2017-05-04 Single Family Ranch 2130 Nye School Rd Beloit, WI 53511 $167,000 1,080 sq. ft. 54,668 sq. ft. $155
2017-04-17 Single Family Cape Cod 3026 Riverside Dr Beloit, WI 53511 $345,000 2,252 sq. ft. 98,446 sq. ft. $153